Time;durP1;ratioP1;P1;durP2;ratioP2;P2;SDS_P1;SDS_P2;PMS_P1;PMS_P2;Temp;Humidity;BMP_temperature;BMP_pressure;BME280_temperature;BME280_humidity;BME280_pressure;Samples;Min_cycle;Max_cycle;Signal;HPM_P1;HPM_P2
2021/11/23 00:01:25;;;;;;;1.52;0.90;;;4.30;99.90;;;;;;5158066;27;20455;-57
2021/11/23 00:03:52;;;;;;;1.50;1.00;;;4.40;99.90;;;;;;5158163;27;20412;-57
2021/11/23 00:06:19;;;;;;;1.55;0.90;;;4.40;99.90;;;;;;5157809;27;20571;-57
2021/11/23 00:08:46;;;;;;;3.05;0.90;;;4.40;99.90;;;;;;5158153;27;20401;-59
2021/11/23 00:11:15;;;;;;;1.42;1.00;;;4.50;99.90;;;;;;5157626;27;20428;-58
2021/11/23 00:13:42;;;;;;;1.30;0.90;;;4.40;99.90;;;;;;5157912;27;20481;-58
2021/11/23 00:16:09;;;;;;;1.40;1.00;;;4.30;99.90;;;;;;5157772;27;20464;-58
2021/11/23 00:18:36;;;;;;;1.30;1.00;;;4.30;99.90;;;;;;5157872;27;20408;-58
2021/11/23 00:21:04;;;;;;;1.60;1.00;;;4.30;99.90;;;;;;5158147;27;20741;-58
2021/11/23 00:23:31;;;;;;;1.30;0.90;;;4.10;99.90;;;;;;5157813;27;20455;-58
2021/11/23 00:25:59;;;;;;;1.40;0.90;;;4.20;99.90;;;;;;5157674;27;20871;-57
2021/11/23 00:28:27;;;;;;;1.30;0.90;;;4.10;99.90;;;;;;5157967;27;20459;-58
2021/11/23 00:30:54;;;;;;;1.30;0.90;;;4.20;99.90;;;;;;5157742;27;20417;-58
2021/11/23 00:33:21;;;;;;;1.80;0.90;;;4.10;99.90;;;;;;5157883;27;20429;-58
2021/11/23 00:35:49;;;;;;;1.33;0.90;;;4.10;99.90;;;;;;5158036;27;20461;-58
2021/11/23 00:38:16;;;;;;;1.70;0.90;;;4.10;99.90;;;;;;5157388;27;20496;-58
2021/11/23 00:40:43;;;;;;;1.88;0.90;;;4.20;99.90;;;;;;5157550;27;20473;-57
2021/11/23 00:43:10;;;;;;;1.80;1.10;;;4.20;99.90;;;;;;5156836;27;20401;-57
2021/11/23 00:45:41;;;;;;;1.80;0.97;;;4.10;99.90;;;;;;5157490;27;20473;-55
2021/11/23 00:48:09;;;;;;;2.10;0.90;;;4.00;99.90;;;;;;5157283;27;20460;-58
2021/11/23 00:50:37;;;;;;;1.58;0.90;;;4.00;99.90;;;;;;5157477;27;20475;-57
2021/11/23 00:53:04;;;;;;;1.50;1.00;;;3.90;99.90;;;;;;5157640;27;20485;-56
2021/11/23 00:55:33;;;;;;;2.40;1.00;;;3.90;99.90;;;;;;5156955;27;20420;-57
2021/11/23 00:58:00;;;;;;;1.30;0.93;;;4.00;99.90;;;;;;5157290;27;20470;-56
2021/11/23 01:00:27;;;;;;;1.60;1.00;;;3.90;99.90;;;;;;5157313;27;20444;-58
2021/11/23 01:02:55;;;;;;;1.60;1.00;;;3.90;99.90;;;;;;5157139;27;20497;-58
2021/11/23 01:05:22;;;;;;;2.00;1.00;;;3.70;99.90;;;;;;5157091;27;20545;-58
2021/11/23 01:07:49;;;;;;;1.20;0.90;;;3.50;99.90;;;;;;5157256;27;20521;-58
2021/11/23 01:10:16;;;;;;;2.30;1.10;;;3.30;99.90;;;;;;5156709;27;20730;-58
2021/11/23 01:12:44;;;;;;;2.10;1.05;;;3.20;99.90;;;;;;5156539;27;20456;-57
2021/11/23 01:15:11;;;;;;;1.60;1.20;;;3.30;99.90;;;;;;5156930;27;20829;-58
2021/11/23 01:17:38;;;;;;;1.80;1.15;;;3.20;99.90;;;;;;5156713;27;20412;-58
2021/11/23 01:20:10;;;;;;;1.65;1.15;;;3.10;99.90;;;;;;5155666;27;20413;-57
2021/11/23 01:22:37;;;;;;;1.30;1.00;;;3.30;99.90;;;;;;5155792;27;20409;-57
2021/11/23 01:25:05;;;;;;;1.70;1.00;;;3.40;99.90;;;;;;5152714;27;20555;-58
2021/11/23 01:27:32;;;;;;;1.42;1.00;;;3.30;99.90;;;;;;5128761;27;20446;-58
2021/11/23 01:29:59;;;;;;;1.40;1.03;;;3.30;99.90;;;;;;5134940;27;20526;-58
2021/11/23 01:32:26;;;;;;;1.63;1.10;;;3.20;99.90;;;;;;5135181;27;20775;-57
2021/11/23 01:34:53;;;;;;;1.60;1.00;;;3.20;99.90;;;;;;5136314;27;20419;-58
2021/11/23 01:37:22;;;;;;;1.73;1.10;;;3.10;99.90;;;;;;5135901;27;20461;-60
2021/11/23 01:39:49;;;;;;;1.65;1.02;;;3.10;99.90;;;;;;5135802;27;20419;-56
2021/11/23 01:42:16;;;;;;;1.60;1.10;;;3.10;99.90;;;;;;5135584;27;20573;-57
2021/11/23 01:44:43;;;;;;;1.60;1.20;;;3.10;99.90;;;;;;5135727;27;20476;-57
2021/11/23 01:47:10;;;;;;;1.77;1.07;;;3.10;99.90;;;;;;5135726;27;20846;-57
2021/11/23 01:49:37;;;;;;;1.70;1.00;;;3.20;99.90;;;;;;5135525;27;20457;-58
2021/11/23 01:52:05;;;;;;;1.30;0.90;;;3.20;99.90;;;;;;5135765;28;20426;-56
2021/11/23 01:54:34;;;;;;;1.50;1.00;;;3.20;99.90;;;;;;5137903;27;20764;-58
2021/11/23 01:57:01;;;;;;;1.70;1.00;;;3.20;99.90;;;;;;5142649;27;20776;-58
2021/11/23 01:59:28;;;;;;;1.60;1.10;;;3.10;99.90;;;;;;5142634;27;20493;-57
2021/11/23 02:01:55;;;;;;;2.20;1.20;;;3.20;99.90;;;;;;5142389;27;20421;-58
2021/11/23 02:04:22;;;;;;;1.30;0.98;;;3.30;99.90;;;;;;5142388;27;20818;-58
2021/11/23 02:06:49;;;;;;;1.40;1.00;;;3.20;99.90;;;;;;5142874;27;20482;-57
2021/11/23 02:09:16;;;;;;;1.52;1.17;;;3.10;99.90;;;;;;5142623;27;20782;-58
2021/11/23 02:11:47;;;;;;;1.40;0.90;;;3.00;99.90;;;;;;5142374;27;20710;-56
2021/11/23 02:14:14;;;;;;;1.83;1.10;;;2.90;99.90;;;;;;5142584;27;20472;-56
2021/11/23 02:16:41;;;;;;;1.60;1.10;;;2.90;99.90;;;;;;5142258;27;20450;-58
2021/11/23 02:19:08;;;;;;;1.60;1.00;;;2.90;99.90;;;;;;5142794;27;20533;-56
2021/11/23 02:21:37;;;;;;;2.28;1.35;;;2.90;99.90;;;;;;5142799;27;20464;-57
2021/11/23 02:24:07;;;;;;;3.30;1.20;;;2.80;99.90;;;;;;5141797;27;20556;-55
2021/11/23 02:26:34;;;;;;;2.10;1.10;;;2.80;99.90;;;;;;5141936;27;20441;-58
2021/11/23 02:29:01;;;;;;;2.05;1.10;;;2.80;99.90;;;;;;5141499;27;20418;-57
2021/11/23 02:31:28;;;;;;;2.20;1.10;;;2.80;99.90;;;;;;5141937;27;20864;-57
2021/11/23 02:33:58;;;;;;;1.77;1.00;;;2.70;99.90;;;;;;5141776;27;20865;-54
2021/11/23 02:36:26;;;;;;;2.90;1.00;;;2.80;99.90;;;;;;5141437;27;20465;-59
2021/11/23 02:38:58;;;;;;;1.73;1.20;;;2.90;99.90;;;;;;5142197;27;20410;-58
2021/11/23 02:41:25;;;;;;;1.40;1.00;;;3.20;99.90;;;;;;5142449;27;20457;-57
2021/11/23 02:43:52;;;;;;;2.30;1.10;;;3.30;99.90;;;;;;5142211;27;20406;-57
2021/11/23 02:46:18;;;;;;;2.20;1.20;;;3.40;99.90;;;;;;5141599;27;20901;-56
2021/11/23 02:48:46;;;;;;;1.70;1.10;;;3.40;99.90;;;;;;5141969;27;20430;-57
2021/11/23 02:51:16;;;;;;;1.80;1.00;;;3.40;99.90;;;;;;5142110;27;20434;-58
2021/11/23 02:53:43;;;;;;;2.40;1.17;;;3.50;99.90;;;;;;5141942;27;20436;-57
2021/11/23 02:56:12;;;;;;;1.50;1.08;;;3.60;99.90;;;;;;5142571;27;20417;-57
2021/11/23 02:58:40;;;;;;;1.70;1.10;;;3.60;99.90;;;;;;5142414;27;20415;-60
2021/11/23 03:01:09;;;;;;;2.40;1.20;;;3.50;99.90;;;;;;5141825;27;20422;-57
2021/11/23 03:03:36;;;;;;;2.60;1.10;;;3.40;99.90;;;;;;5141778;27;20406;-57
2021/11/23 03:06:03;;;;;;;1.90;1.20;;;3.10;99.90;;;;;;5140617;27;20426;-57
2021/11/23 03:08:30;;;;;;;1.30;1.00;;;3.10;99.90;;;;;;5138757;27;20414;-57
2021/11/23 03:10:57;;;;;;;2.58;1.10;;;3.10;99.90;;;;;;5138971;27;20453;-57
2021/11/23 03:13:25;;;;;;;1.95;1.10;;;3.20;99.90;;;;;;5138600;27;20418;-57
2021/11/23 03:15:52;;;;;;;1.90;1.10;;;3.20;99.90;;;;;;5139178;27;20517;-57
2021/11/23 03:18:19;;;;;;;2.10;1.10;;;3.20;99.90;;;;;;5142854;27;20465;-57
2021/11/23 03:20:46;;;;;;;1.60;1.10;;;3.20;99.90;;;;;;5159113;27;20456;-57
2021/11/23 03:23:14;;;;;;;1.88;1.20;;;3.20;99.90;;;;;;5159295;27;20757;-57
2021/11/23 03:25:41;;;;;;;1.90;1.20;;;3.20;99.90;;;;;;5159334;27;20448;-58
2021/11/23 03:28:08;;;;;;;1.83;1.10;;;2.90;99.90;;;;;;5159266;27;20469;-57
2021/11/23 03:30:37;;;;;;;1.55;1.10;;;3.00;99.90;;;;;;5159157;27;20582;-57
2021/11/23 03:33:07;;;;;;;1.60;1.10;;;3.00;99.90;;;;;;5158663;27;20437;-58
2021/11/23 03:35:36;;;;;;;1.50;1.00;;;3.00;99.90;;;;;;5159027;27;20449;-56
2021/11/23 03:38:05;;;;;;;1.83;1.00;;;3.00;99.90;;;;;;5158862;27;20703;-58
2021/11/23 03:40:34;;;;;;;2.00;1.20;;;3.00;99.90;;;;;;5159252;27;20456;-57
2021/11/23 03:43:01;;;;;;;2.88;1.20;;;3.00;99.90;;;;;;5159066;27;20419;-56
2021/11/23 03:45:30;;;;;;;2.70;1.02;;;2.80;99.90;;;;;;5158720;27;20424;-58
2021/11/23 03:47:58;;;;;;;1.80;1.20;;;2.70;99.90;;;;;;5158278;27;20455;-56
2021/11/23 03:50:27;;;;;;;1.75;1.20;;;2.70;99.90;;;;;;5157521;27;20712;-57
2021/11/23 03:52:54;;;;;;;1.60;1.10;;;2.80;99.90;;;;;;5158004;27;20412;-55
2021/11/23 03:55:22;;;;;;;1.70;1.10;;;2.80;99.90;;;;;;5149888;27;20463;-57
2021/11/23 03:57:51;;;;;;;2.65;1.25;;;2.70;99.90;;;;;;5132903;27;20450;-57
2021/11/23 04:00:20;;;;;;;2.33;1.20;;;2.70;99.90;;;;;;5135830;27;20517;-58
2021/11/23 04:02:49;;;;;;;1.60;1.10;;;2.70;99.90;;;;;;5135968;27;20515;-57
2021/11/23 04:05:17;;;;;;;2.03;1.10;;;2.70;99.90;;;;;;5132905;27;20472;-57
2021/11/23 04:07:44;;;;;;;1.65;1.10;;;3.00;99.90;;;;;;5131121;27;20411;-57
2021/11/23 04:10:13;;;;;;;1.80;1.20;;;3.10;99.90;;;;;;5135971;27;20444;-59
2021/11/23 04:12:40;;;;;;;2.10;1.38;;;3.00;99.90;;;;;;5135832;27;20766;-56
2021/11/23 04:15:09;;;;;;;2.90;1.60;;;2.60;99.90;;;;;;5136492;27;20469;-56
2021/11/23 04:17:36;;;;;;;3.80;1.20;;;2.30;99.90;;;;;;5136062;27;20488;-56
2021/11/23 04:20:04;;;;;;;2.08;1.40;;;2.10;99.90;;;;;;5136797;27;20414;-56
2021/11/23 04:22:33;;;;;;;2.00;1.40;;;2.10;99.90;;;;;;5137038;27;20415;-58
2021/11/23 04:25:00;;;;;;;2.70;1.30;;;2.00;99.90;;;;;;5137149;27;20779;-58
2021/11/23 04:27:28;;;;;;;1.98;1.20;;;2.30;99.90;;;;;;5137188;27;20414;-57
2021/11/23 04:29:55;;;;;;;2.55;1.50;;;2.30;99.90;;;;;;5136821;27;20415;-57
2021/11/23 04:32:22;;;;;;;2.08;1.20;;;2.30;99.90;;;;;;5135737;27;20437;-57
2021/11/23 04:34:49;;;;;;;2.30;1.20;;;2.50;99.90;;;;;;5136301;27;20462;-56
2021/11/23 04:37:16;;;;;;;2.17;1.40;;;2.70;99.90;;;;;;5136389;27;20446;-56
2021/11/23 04:39:44;;;;;;;2.20;1.30;;;2.60;99.90;;;;;;5136456;27;20710;-57
2021/11/23 04:42:11;;;;;;;2.13;1.30;;;2.60;99.90;;;;;;5135935;27;20483;-57
2021/11/23 04:44:38;;;;;;;2.70;1.30;;;2.60;99.90;;;;;;5135984;27;20475;-56
2021/11/23 04:47:05;;;;;;;1.92;1.10;;;2.80;99.90;;;;;;5136222;27;20718;-57
2021/11/23 04:49:33;;;;;;;1.73;1.20;;;2.90;99.90;;;;;;5135899;27;20464;-57
2021/11/23 04:52:00;;;;;;;2.22;1.30;;;2.80;99.90;;;;;;5136435;27;20424;-57
2021/11/23 04:54:27;;;;;;;3.20;1.30;;;2.80;99.90;;;;;;5136677;27;20411;-57
2021/11/23 04:56:56;;;;;;;2.50;1.50;;;2.70;99.90;;;;;;5136950;27;20447;-56
2021/11/23 04:59:23;;;;;;;2.20;1.40;;;2.50;99.90;;;;;;5135440;27;20488;-56
2021/11/23 05:01:50;;;;;;;2.30;1.38;;;2.30;99.90;;;;;;5134782;27;20888;-57
2021/11/23 05:04:17;;;;;;;2.20;1.58;;;2.10;99.90;;;;;;5134840;27;20423;-56
2021/11/23 05:06:44;;;;;;;2.83;1.80;;;2.00;99.90;;;;;;5134180;27;20480;-57
2021/11/23 05:09:10;;;;;;;3.55;1.80;;;2.00;99.90;;;;;;5133731;27;20849;-55
2021/11/23 05:11:40;;;;;;;2.72;1.40;;;2.10;99.90;;;;;;5132424;27;20458;-57
2021/11/23 05:14:08;;;;;;;2.55;1.60;;;2.10;99.90;;;;;;5132457;27;20471;-57
2021/11/23 05:16:35;;;;;;;2.40;1.40;;;2.10;99.90;;;;;;5133235;27;20430;-57
2021/11/23 05:19:02;;;;;;;2.20;1.42;;;2.40;99.90;;;;;;5133992;27;20458;-57
2021/11/23 05:21:29;;;;;;;3.10;1.50;;;2.50;99.90;;;;;;5133482;27;20465;-57
2021/11/23 05:23:56;;;;;;;1.88;1.25;;;2.50;99.90;;;;;;5133884;27;20430;-57
2021/11/23 05:26:23;;;;;;;2.80;1.70;;;2.60;99.90;;;;;;5135016;27;20458;-59
2021/11/23 05:28:50;;;;;;;2.40;1.50;;;2.60;99.90;;;;;;5135576;27;20434;-58
2021/11/23 05:31:18;;;;;;;2.43;1.23;;;2.60;99.90;;;;;;5136116;27;20422;-58
2021/11/23 05:33:47;;;;;;;2.47;1.40;;;2.50;99.90;;;;;;5136011;27;20450;-57
2021/11/23 05:36:15;;;;;;;3.40;1.47;;;2.50;99.90;;;;;;5136078;27;20458;-56
2021/11/23 05:38:41;;;;;;;2.25;1.40;;;2.50;99.90;;;;;;5134777;27;20492;-57
2021/11/23 05:41:08;;;;;;;3.50;1.40;;;2.50;99.90;;;;;;5134964;27;21060;-56
2021/11/23 05:43:35;;;;;;;2.42;1.42;;;2.40;99.90;;;;;;5135057;27;20490;-57
2021/11/23 05:46:02;;;;;;;3.20;1.67;;;2.00;99.90;;;;;;5127503;27;20857;-56
2021/11/23 05:48:31;;;;;;;3.70;1.90;;;2.00;99.90;;;;;;5134576;27;20418;-53
2021/11/23 05:51:03;;;;;;;4.70;2.30;;;2.00;99.90;;;;;;5134924;27;20913;-56
2021/11/23 05:53:30;;;;;;;3.03;1.90;;;1.90;99.90;;;;;;5134540;27;20418;-57
2021/11/23 05:55:57;;;;;;;2.50;1.40;;;2.30;99.90;;;;;;5134176;27;20545;-58
2021/11/23 05:58:24;;;;;;;2.80;1.40;;;2.90;99.90;;;;;;5125961;27;20622;-59
2021/11/23 06:00:51;;;;;;;4.72;1.40;;;3.60;99.90;;;;;;5113960;28;20424;-58
2021/11/23 06:03:18;;;;;;;3.05;2.00;;;3.70;99.90;;;;;;5114250;28;20496;-58
2021/11/23 06:05:47;;;;;;;2.70;1.10;;;3.80;99.90;;;;;;5113636;28;20420;-58
2021/11/23 06:08:14;;;;;;;2.50;1.60;;;3.80;99.90;;;;;;5112212;28;20416;-58
2021/11/23 06:10:41;;;;;;;3.10;1.58;;;3.40;99.90;;;;;;5112738;28;20847;-58
2021/11/23 06:13:10;;;;;;;3.45;1.40;;;2.90;99.90;;;;;;5112026;28;20505;-58
2021/11/23 06:15:38;;;;;;;3.00;1.73;;;2.50;99.90;;;;;;5111848;28;20467;-58
2021/11/23 06:18:05;;;;;;;2.70;1.40;;;2.60;99.90;;;;;;5113560;28;20427;-57
2021/11/23 06:20:32;;;;;;;4.57;1.60;;;2.70;99.90;;;;;;5113635;28;20475;-58
2021/11/23 06:23:03;;;;;;;3.78;1.90;;;2.70;99.90;;;;;;5114334;28;20416;-59
2021/11/23 06:25:30;;;;;;;2.75;1.65;;;2.80;99.90;;;;;;5112719;28;20767;-58
2021/11/23 06:27:58;;;;;;;1.90;1.40;;;2.80;99.90;;;;;;5111180;28;20474;-58
2021/11/23 06:30:29;;;;;;;2.22;1.40;;;2.60;99.90;;;;;;5110148;28;20463;-58
2021/11/23 06:32:57;;;;;;;3.50;1.83;;;2.70;99.90;;;;;;5109707;28;20412;-58
2021/11/23 06:35:24;;;;;;;2.28;1.30;;;2.80;99.90;;;;;;5108480;28;20432;-58
2021/11/23 06:37:51;;;;;;;2.97;2.03;;;2.70;99.90;;;;;;5108668;28;20456;-58
2021/11/23 06:40:19;;;;;;;2.75;1.50;;;2.50;99.90;;;;;;5108152;28;20762;-58
2021/11/23 06:42:46;;;;;;;3.40;1.98;;;2.60;99.90;;;;;;5110222;28;20412;-58
2021/11/23 06:45:16;;;;;;;2.88;1.80;;;2.50;99.90;;;;;;5111766;28;20484;-58
2021/11/23 06:47:46;;;;;;;3.10;2.00;;;2.60;99.90;;;;;;5111281;28;20494;-57
2021/11/23 06:50:14;;;;;;;3.00;2.10;;;2.70;99.90;;;;;;5112587;28;20469;-58
2021/11/23 06:52:41;;;;;;;3.60;2.00;;;2.50;99.90;;;;;;5112209;28;20416;-58
2021/11/23 06:55:09;;;;;;;4.15;1.88;;;2.40;99.90;;;;;;5113479;28;20810;-58
2021/11/23 06:57:40;;;;;;;3.28;2.25;;;2.40;99.90;;;;;;5113680;28;20503;-57
2021/11/23 07:00:09;;;;;;;4.15;2.22;;;2.50;99.90;;;;;;5114204;28;20827;-58
2021/11/23 07:02:37;;;;;;;3.38;1.83;;;2.60;99.90;;;;;;5114984;28;20549;-58
2021/11/23 07:05:04;;;;;;;2.88;1.80;;;2.70;99.90;;;;;;5115606;28;20413;-58
2021/11/23 07:07:31;;;;;;;3.07;1.67;;;2.60;99.90;;;;;;5114642;28;21130;-58
2021/11/23 07:10:02;;;;;;;3.13;2.00;;;2.80;99.90;;;;;;5116148;28;20803;-57
2021/11/23 07:12:28;;;;;;;3.80;2.10;;;2.70;99.90;;;;;;5116435;28;20481;-59
2021/11/23 07:14:57;;;;;;;2.47;1.80;;;2.70;99.90;;;;;;5114394;28;20622;-58
2021/11/23 07:17:24;;;;;;;3.03;2.03;;;2.60;99.90;;;;;;5115503;28;20452;-59
2021/11/23 07:19:51;;;;;;;4.10;1.80;;;2.50;99.90;;;;;;5115783;28;20412;-59
2021/11/23 07:22:18;;;;;;;4.03;2.30;;;2.70;99.90;;;;;;5114658;28;20872;-59
2021/11/23 07:24:45;;;;;;;3.78;2.10;;;2.70;99.90;;;;;;5115843;28;20412;-59
2021/11/23 07:27:12;;;;;;;3.53;1.65;;;2.50;99.90;;;;;;5116650;28;20452;-59
2021/11/23 07:29:39;;;;;;;2.83;1.85;;;2.40;99.90;;;;;;5115052;28;20455;-58
2021/11/23 07:32:08;;;;;;;4.30;1.80;;;2.60;99.90;;;;;;5114372;28;20785;-58
2021/11/23 07:34:36;;;;;;;3.25;2.10;;;2.70;99.90;;;;;;5113284;28;20532;-58
2021/11/23 07:37:03;;;;;;;3.72;1.75;;;2.80;99.90;;;;;;5112587;28;20458;-58
2021/11/23 07:39:30;;;;;;;2.70;1.60;;;2.60;99.90;;;;;;5110715;28;20416;-59
2021/11/23 07:41:57;;;;;;;3.42;2.20;;;2.60;99.90;;;;;;5109685;28;20419;-55
2021/11/23 07:44:24;;;;;;;2.67;1.60;;;2.50;99.90;;;;;;5112522;28;20786;-55
2021/11/23 07:46:51;;;;;;;2.50;1.80;;;2.70;99.90;;;;;;5112589;28;20477;-55
2021/11/23 07:49:21;;;;;;;3.55;2.20;;;2.90;99.90;;;;;;5109386;28;20712;-55
2021/11/23 07:51:48;;;;;;;2.40;2.00;;;2.80;99.90;;;;;;5110664;28;20428;-55
2021/11/23 07:54:15;;;;;;;3.13;1.75;;;3.10;99.90;;;;;;5111737;28;20488;-57
2021/11/23 07:56:42;;;;;;;3.38;2.25;;;3.20;99.90;;;;;;5112746;28;20430;-53
2021/11/23 07:59:10;;;;;;;3.30;1.80;;;3.10;99.90;;;;;;5111854;28;20444;-55
2021/11/23 08:01:38;;;;;;;4.10;2.20;;;3.20;99.90;;;;;;5111155;28;20911;-57
2021/11/23 08:04:05;;;;;;;3.80;1.70;;;2.90;99.90;;;;;;5111302;28;20420;-54
2021/11/23 08:06:34;;;;;;;3.35;2.10;;;2.90;99.90;;;;;;5110835;28;20505;-55
2021/11/23 08:09:01;;;;;;;4.70;2.45;;;3.00;99.90;;;;;;5110515;28;20847;-60
2021/11/23 08:11:28;;;;;;;3.90;1.92;;;3.10;99.90;;;;;;5110218;28;20931;-56
2021/11/23 08:13:55;;;;;;;3.75;2.05;;;3.20;99.90;;;;;;5108894;28;20416;-63
2021/11/23 08:16:23;;;;;;;2.30;1.80;;;3.40;99.90;;;;;;5110121;28;20463;-58
2021/11/23 08:18:50;;;;;;;3.30;1.80;;;3.40;99.90;;;;;;5108724;28;20427;-57
2021/11/23 08:21:17;;;;;;;4.63;2.55;;;3.30;99.90;;;;;;5110716;28;20481;-57
2021/11/23 08:23:46;;;;;;;3.42;2.00;;;3.10;99.90;;;;;;5111880;28;20635;-58
2021/11/23 08:26:14;;;;;;;3.33;2.00;;;3.20;99.90;;;;;;5110230;28;20427;-56
2021/11/23 08:28:42;;;;;;;2.95;1.60;;;3.20;99.90;;;;;;5110380;28;20439;-56
2021/11/23 08:31:10;;;;;;;2.42;1.58;;;3.40;99.90;;;;;;5110624;28;20855;-58
2021/11/23 08:33:37;;;;;;;3.22;2.00;;;3.50;99.90;;;;;;5113828;28;20450;-55
2021/11/23 08:36:04;;;;;;;3.45;1.80;;;3.80;99.90;;;;;;5113429;28;20463;-58
2021/11/23 08:38:31;;;;;;;3.92;1.80;;;3.90;99.90;;;;;;5112616;28;20459;-58
2021/11/23 08:41:00;;;;;;;2.70;1.50;;;4.10;99.90;;;;;;5113168;28;20424;-58
2021/11/23 08:43:27;;;;;;;3.70;1.80;;;4.20;99.90;;;;;;5115073;28;20455;-58
2021/11/23 08:45:54;;;;;;;2.17;1.42;;;4.10;99.90;;;;;;5114541;28;20424;-59
2021/11/23 08:48:21;;;;;;;2.90;1.90;;;3.90;99.90;;;;;;5111796;28;20519;-59
2021/11/23 08:50:49;;;;;;;2.20;1.40;;;3.70;99.90;;;;;;5109753;28;20525;-60
2021/11/23 08:53:16;;;;;;;2.60;1.60;;;3.70;99.90;;;;;;5110810;28;20721;-60
2021/11/23 08:55:43;;;;;;;2.45;1.23;;;3.90;99.90;;;;;;5110146;28;20580;-60
2021/11/23 08:58:12;;;;;;;3.17;1.87;;;4.20;99.90;;;;;;5110694;28;20759;-60
2021/11/23 09:00:39;;;;;;;2.33;1.35;;;4.20;99.90;;;;;;5107035;28;20428;-60
2021/11/23 09:03:06;;;;;;;4.33;1.40;;;4.40;99.90;;;;;;5107782;28;20450;-60
2021/11/23 09:05:37;;;;;;;2.10;1.48;;;4.60;99.90;;;;;;5111086;28;20531;-60
2021/11/23 09:08:07;;;;;;;1.97;1.30;;;4.70;99.90;;;;;;5113969;27;20510;-60
2021/11/23 09:10:38;;;;;;;2.40;1.60;;;4.60;99.90;;;;;;5112331;28;20428;-60
2021/11/23 09:13:06;;;;;;;1.90;1.30;;;4.30;99.90;;;;;;5113163;28;20444;-59
2021/11/23 09:15:35;;;;;;;2.20;1.37;;;4.00;99.90;;;;;;5111268;28;20489;-60
2021/11/23 09:18:03;;;;;;;3.17;1.50;;;4.40;99.90;;;;;;5111038;28;20779;-59
2021/11/23 09:20:35;;;;;;;3.00;1.20;;;4.50;99.90;;;;;;5109790;28;20520;-60
2021/11/23 09:23:03;;;;;;;2.03;1.38;;;4.80;99.90;;;;;;5122372;27;20450;-60
2021/11/23 09:25:31;;;;;;;1.70;1.30;;;5.10;99.90;;;;;;5130904;27;20530;-60
2021/11/23 09:28:00;;;;;;;2.63;1.30;;;5.10;99.90;;;;;;5129390;27;20433;-59
2021/11/23 09:30:29;;;;;;;1.98;1.20;;;5.00;99.90;;;;;;5130342;27;20415;-60
2021/11/23 09:33:02;;;;;;;2.10;1.30;;;4.90;99.90;;;;;;5129647;27;20426;-61
2021/11/23 09:35:29;;;;;;;2.40;1.20;;;5.00;99.90;;;;;;5129310;27;20513;-60
2021/11/23 09:37:57;;;;;;;2.63;1.40;;;4.90;99.90;;;;;;5128164;27;20491;-60
2021/11/23 09:40:25;;;;;;;3.10;1.50;;;5.10;99.90;;;;;;5132190;27;20462;-61
2021/11/23 09:43:05;;;;;;;2.45;1.20;;;5.10;99.90;;;;;;5130908;27;20450;-60
2021/11/23 09:45:32;;;;;;;1.60;1.20;;;5.30;99.90;;;;;;5128894;27;20422;-60
2021/11/23 09:48:04;;;;;;;1.60;1.25;;;5.40;99.90;;;;;;5132631;27;20502;-60
2021/11/23 09:50:31;;;;;;;1.60;1.20;;;5.40;99.90;;;;;;5133325;27;20467;-61
2021/11/23 09:53:01;;;;;;;2.70;1.60;;;5.40;99.90;;;;;;5131834;27;20472;-59
2021/11/23 09:55:28;;;;;;;2.27;1.30;;;5.40;99.90;;;;;;5132586;27;20430;-59
2021/11/23 09:57:55;;;;;;;1.80;1.33;;;5.10;99.90;;;;;;5131480;27;20414;-59
2021/11/23 10:00:29;;;;;;;2.40;1.50;;;5.20;99.90;;;;;;5128642;27;20426;-59
2021/11/23 10:03:03;;;;;;;2.22;1.30;;;5.10;99.90;;;;;;5129980;27;20471;-59
2021/11/23 10:05:37;;;;;;;2.83;1.42;;;4.90;99.90;;;;;;5126936;27;20841;-59
2021/11/23 10:08:10;;;;;;;2.40;1.42;;;4.90;99.90;;;;;;5129413;28;20415;-59
2021/11/23 10:10:43;;;;;;;1.90;1.33;;;5.10;99.90;;;;;;5128170;28;20726;-60
2021/11/23 10:13:10;;;;;;;2.90;1.30;;;5.30;99.90;;;;;;5127577;27;20520;-59
2021/11/23 10:15:45;;;;;;;5.13;1.50;;;5.00;99.90;;;;;;5128177;27;20433;-60
2021/11/23 10:18:16;;;;;;;1.90;1.30;;;4.80;99.90;;;;;;5132355;27;20479;-60
2021/11/23 10:20:45;;;;;;;4.07;1.33;;;5.00;99.90;;;;;;5133002;27;20418;-59
2021/11/23 10:23:21;;;;;;;2.90;1.60;;;5.30;99.90;;;;;;5134165;27;20502;-59
2021/11/23 10:25:51;;;;;;;2.00;1.20;;;5.40;99.90;;;;;;5131812;27;20505;-59
2021/11/23 10:28:18;;;;;;;3.63;1.30;;;5.50;99.90;;;;;;5134773;27;20857;-58
2021/11/23 10:30:47;;;;;;;3.88;1.67;;;5.60;99.90;;;;;;5136276;27;20458;-59
2021/11/23 10:33:17;;;;;;;2.47;1.40;;;5.50;99.90;;;;;;5136158;27;20468;-58
2021/11/23 10:35:50;;;;;;;1.50;1.20;;;5.50;99.90;;;;;;5135635;27;20874;-58
2021/11/23 10:38:20;;;;;;;2.80;1.90;;;5.60;99.90;;;;;;5134873;27;20501;-59
2021/11/23 10:40:52;;;;;;;3.03;1.70;;;5.40;99.90;;;;;;5136195;27;20446;-59
2021/11/23 10:43:20;;;;;;;1.88;1.40;;;5.30;99.90;;;;;;5136350;27;20471;-59
2021/11/23 10:45:51;;;;;;;2.58;1.58;;;5.10;99.90;;;;;;5134767;27;20421;-59
2021/11/23 10:48:23;;;;;;;1.60;1.20;;;5.30;99.90;;;;;;5132754;27;20414;-59
2021/11/23 10:51:04;;;;;;;3.30;1.30;;;5.50;99.90;;;;;;5133009;27;20441;-59
2021/11/23 10:53:33;;;;;;;2.83;1.50;;;5.70;99.90;;;;;;5135380;27;20426;-59
2021/11/23 10:56:22;;;;;;;4.05;1.40;;;5.80;99.90;;;;;;5134998;27;20643;-59
2021/11/23 10:58:54;;;;;;;2.50;1.20;;;5.70;99.90;;;;;;5129828;27;20490;-58
2021/11/23 11:01:21;;;;;;;2.90;1.40;;;5.60;99.90;;;;;;5135483;27;20418;-58
2021/11/23 11:03:50;;;;;;;2.90;1.25;;;5.80;99.90;;;;;;5133961;27;20414;-59
2021/11/23 11:06:18;;;;;;;3.53;1.23;;;5.50;99.90;;;;;;5133673;27;20425;-59
2021/11/23 11:08:46;;;;;;;3.00;1.20;;;5.20;99.90;;;;;;5133831;27;20728;-59
2021/11/23 11:11:16;;;;;;;2.63;1.30;;;5.20;99.90;;;;;;5132814;27;20442;-59
2021/11/23 11:13:48;;;;;;;2.80;1.23;;;5.40;99.90;;;;;;5133571;27;20867;-59
2021/11/23 11:16:16;;;;;;;1.80;1.10;;;5.30;99.90;;;;;;5135200;27;20437;-59
2021/11/23 11:19:06;;;;;;;1.57;1.10;;;5.50;99.90;;;;;;5134229;27;20941;-59
2021/11/23 11:21:38;;;;;;;2.90;1.20;;;5.70;99.90;;;;;;5135209;27;20712;-59
2021/11/23 11:24:25;;;;;;;2.00;1.50;;;5.90;99.90;;;;;;5134144;27;20510;-59
2021/11/23 11:26:56;;;;;;;2.38;1.13;;;5.80;99.90;;;;;;5133882;27;20476;-59
2021/11/23 11:29:32;;;;;;;2.30;1.08;;;5.90;99.90;;;;;;5131707;27;20529;-59
2021/11/23 11:32:00;;;;;;;2.78;1.00;;;5.90;99.90;;;;;;5112258;28;20420;-59
2021/11/23 11:34:31;;;;;;;3.90;1.70;;;6.10;99.90;;;;;;5111245;28;20415;-60
2021/11/23 11:37:16;;;;;;;2.40;1.30;;;6.00;99.90;;;;;;5122911;27;20434;-60
2021/11/23 11:39:54;;;;;;;4.40;1.30;;;6.00;99.90;;;;;;5133052;27;20425;-59
2021/11/23 11:42:47;;;;;;;2.15;1.10;;;6.20;99.90;;;;;;5131808;27;20475;-60
2021/11/23 11:45:22;;;;;;;1.73;1.00;;;6.30;99.90;;;;;;5131542;27;20578;-61
2021/11/23 11:47:58;;;;;;;1.45;1.00;;;6.40;99.90;;;;;;5132389;27;20410;-61
2021/11/23 11:50:29;;;;;;;1.70;1.10;;;6.60;99.90;;;;;;5134223;27;20904;-61
2021/11/23 11:53:15;;;;;;;2.50;0.90;;;6.50;99.90;;;;;;5134567;27;20410;-63
2021/11/23 11:55:50;;;;;;;1.40;1.00;;;6.60;99.90;;;;;;5134997;27;20426;-64
2021/11/23 11:58:51;;;;;;;2.30;1.10;;;6.50;99.90;;;;;;5134252;27;20406;-59
2021/11/23 12:01:41;;;;;;;2.17;1.10;;;6.40;99.90;;;;;;5129363;27;20660;-58
2021/11/23 12:04:14;;;;;;;1.90;1.00;;;6.60;99.90;;;;;;5128455;27;20434;-58
2021/11/23 12:07:13;;;;;;;1.60;1.00;;;6.70;99.90;;;;;;5115488;27;20487;-59
2021/11/23 12:09:47;;;;;;;2.20;1.05;;;6.60;99.90;;;;;;5112420;27;20787;-57
2021/11/23 12:12:50;;;;;;;1.40;0.90;;;6.60;99.90;;;;;;5132270;27;20517;-58
2021/11/23 12:15:29;;;;;;;1.70;0.90;;;6.60;99.90;;;;;;5129126;27;20775;-57
2021/11/23 12:18:11;;;;;;;1.35;0.90;;;6.70;99.90;;;;;;5128965;27;20913;-57
2021/11/23 12:20:50;;;;;;;1.30;0.90;;;6.60;99.90;;;;;;5128999;27;20439;-57
2021/11/23 12:23:36;;;;;;;1.63;0.80;;;6.60;99.90;;;;;;5130094;27;20422;-58
2021/11/23 12:26:08;;;;;;;1.42;0.90;;;6.70;99.90;;;;;;5132315;27;20727;-58
2021/11/23 12:28:36;;;;;;;2.30;0.90;;;6.60;99.90;;;;;;5132104;27;20464;-58
2021/11/23 12:31:07;;;;;;;1.20;0.80;;;6.60;99.90;;;;;;5132520;27;20490;-58
2021/11/23 12:33:43;;;;;;;1.33;0.90;;;6.50;99.90;;;;;;5121265;27;20489;-56
2021/11/23 12:36:14;;;;;;;1.50;0.80;;;6.70;99.90;;;;;;5123554;27;20934;-57
2021/11/23 12:38:43;;;;;;;2.63;0.82;;;6.90;99.90;;;;;;5113747;27;20729;-58
2021/11/23 12:41:13;;;;;;;1.20;0.80;;;7.10;99.90;;;;;;5111925;28;20452;-55
2021/11/23 12:43:40;;;;;;;2.10;0.90;;;7.00;99.90;;;;;;5113914;27;20454;-56
2021/11/23 12:46:15;;;;;;;1.58;0.80;;;7.10;99.90;;;;;;5137012;27;20464;-58
2021/11/23 12:48:44;;;;;;;1.13;0.80;;;7.30;99.90;;;;;;5112426;27;20863;-56
2021/11/23 12:51:29;;;;;;;2.13;0.80;;;7.30;99.90;;;;;;5132717;27;20444;-57
2021/11/23 12:54:05;;;;;;;1.20;0.90;;;7.40;99.90;;;;;;5132627;27;20414;-57
2021/11/23 12:56:47;;;;;;;2.00;1.00;;;7.50;99.90;;;;;;5110541;28;21006;-57
2021/11/23 12:59:34;;;;;;;1.67;0.80;;;7.50;99.90;;;;;;5109461;28;20507;-58
2021/11/23 13:02:23;;;;;;;1.30;0.90;;;7.40;99.90;;;;;;5108936;28;20428;-60
2021/11/23 13:05:18;;;;;;;1.50;1.00;;;7.40;99.90;;;;;;5107918;28;20439;-60
2021/11/23 13:07:51;;;;;;;1.40;0.95;;;7.30;99.90;;;;;;5104333;28;20424;-58
2021/11/23 13:10:24;;;;;;;2.67;1.30;;;7.10;99.90;;;;;;5110964;28;20487;-58